sensor_id;sensor_type;location;lat;lon;timestamp;P1;P2;P0
46240;PMS5003;31961;52.416;-0.732;2023-04-01T00:01:39;6;5;
46240;PMS5003;31961;52.416;-0.732;2023-04-01T00:04:07;9;9;
46240;PMS5003;31961;52.416;-0.732;2023-04-01T00:06:34;4;4;
46240;PMS5003;31961;52.416;-0.732;2023-04-01T00:09:02;7;6;
46240;PMS5003;31961;52.416;-0.732;2023-04-01T00:11:29;8;8;
46240;PMS5003;31961;52.416;-0.732;2023-04-01T00:13:56;6;6;
46240;PMS5003;31961;52.416;-0.732;2023-04-01T00:16:24;8;7;
46240;PMS5003;31961;52.416;-0.732;2023-04-01T00:18:51;6;6;
46240;PMS5003;31961;52.416;-0.732;2023-04-01T00:21:19;9;8;
46240;PMS5003;31961;52.416;-0.732;2023-04-01T00:23:47;9;7;
46240;PMS5003;31961;52.416;-0.732;2023-04-01T00:26:14;6;5;
46240;PMS5003;31961;52.416;-0.732;2023-04-01T00:28:42;6;6;
46240;PMS5003;31961;52.416;-0.732;2023-04-01T00:31:09;4;4;
46240;PMS5003;31961;52.416;-0.732;2023-04-01T00:33:37;4;4;
46240;PMS5003;31961;52.416;-0.732;2023-04-01T00:36:06;5;5;
46240;PMS5003;31961;52.416;-0.732;2023-04-01T00:38:35;6;5;
46240;PMS5003;31961;52.416;-0.732;2023-04-01T00:41:02;4;4;
46240;PMS5003;31961;52.416;-0.732;2023-04-01T00:43:30;6;6;
46240;PMS5003;31961;52.416;-0.732;2023-04-01T00:45:58;5;5;
46240;PMS5003;31961;52.416;-0.732;2023-04-01T00:48:26;5;4;
46240;PMS5003;31961;52.416;-0.732;2023-04-01T00:50:56;4;4;
46240;PMS5003;31961;52.416;-0.732;2023-04-01T00:53:27;3;3;
46240;PMS5003;31961;52.416;-0.732;2023-04-01T00:55:56;4;4;
46240;PMS5003;31961;52.416;-0.732;2023-04-01T00:58:27;3;2;
46240;PMS5003;31961;52.416;-0.732;2023-04-01T01:00:58;3;3;
46240;PMS5003;31961;52.416;-0.732;2023-04-01T01:03:26;3;1;
46240;PMS5003;31961;52.416;-0.732;2023-04-01T01:05:58;2;2;
46240;PMS5003;31961;52.416;-0.732;2023-04-01T01:08:39;4;2;
46240;PMS5003;31961;52.416;-0.732;2023-04-01T01:11:19;3;3;
46240;PMS5003;31961;52.416;-0.732;2023-04-01T01:13:56;3;3;
46240;PMS5003;31961;52.416;-0.732;2023-04-01T01:16:29;2;2;
46240;PMS5003;31961;52.416;-0.732;2023-04-01T01:19:00;5;4;
46240;PMS5003;31961;52.416;-0.732;2023-04-01T01:21:47;6;5;
46240;PMS5003;31961;52.416;-0.732;2023-04-01T01:24:40;7;6;
46240;PMS5003;31961;52.416;-0.732;2023-04-01T01:27:18;4;4;
46240;PMS5003;31961;52.416;-0.732;2023-04-01T01:29:52;6;6;
46240;PMS5003;31961;52.416;-0.732;2023-04-01T01:32:40;5;4;
46240;PMS5003;31961;52.416;-0.732;2023-04-01T01:35:22;5;5;
46240;PMS5003;31961;52.416;-0.732;2023-04-01T01:37:54;11;8;
46240;PMS5003;31961;52.416;-0.732;2023-04-01T01:40:24;8;8;
46240;PMS5003;31961;52.416;-0.732;2023-04-01T01:42:54;6;6;
46240;PMS5003;31961;52.416;-0.732;2023-04-01T01:45:25;7;7;
46240;PMS5003;31961;52.416;-0.732;2023-04-01T01:47:54;11;9;
46240;PMS5003;31961;52.416;-0.732;2023-04-01T01:50:23;13;13;
46240;PMS5003;31961;52.416;-0.732;2023-04-01T01:52:59;11;10;
46240;PMS5003;31961;52.416;-0.732;2023-04-01T01:55:27;11;9;
46240;PMS5003;31961;52.416;-0.732;2023-04-01T01:57:57;10;9;
46240;PMS5003;31961;52.416;-0.732;2023-04-01T02:00:27;9;9;
46240;PMS5003;31961;52.416;-0.732;2023-04-01T02:02:55;8;7;
46240;PMS5003;31961;52.416;-0.732;2023-04-01T02:05:25;8;8;
46240;PMS5003;31961;52.416;-0.732;2023-04-01T02:07:58;8;8;
46240;PMS5003;31961;52.416;-0.732;2023-04-01T02:10:30;9;9;
46240;PMS5003;31961;52.416;-0.732;2023-04-01T02:13:01;6;6;
46240;PMS5003;31961;52.416;-0.732;2023-04-01T02:15:37;9;8;
46240;PMS5003;31961;52.416;-0.732;2023-04-01T02:18:09;6;6;
46240;PMS5003;31961;52.416;-0.732;2023-04-01T02:20:38;10;10;
46240;PMS5003;31961;52.416;-0.732;2023-04-01T02:23:07;11;9;
46240;PMS5003;31961;52.416;-0.732;2023-04-01T02:25:37;14;12;
46240;PMS5003;31961;52.416;-0.732;2023-04-01T02:28:06;14;14;
46240;PMS5003;31961;52.416;-0.732;2023-04-01T02:30:36;10;10;
46240;PMS5003;31961;52.416;-0.732;2023-04-01T02:33:06;12;10;
46240;PMS5003;31961;52.416;-0.732;2023-04-01T02:35:33;13;10;
46240;PMS5003;31961;52.416;-0.732;2023-04-01T02:38:02;9;9;
46240;PMS5003;31961;52.416;-0.732;2023-04-01T02:40:40;12;9;
46240;PMS5003;31961;52.416;-0.732;2023-04-01T02:43:08;10;10;
46240;PMS5003;31961;52.416;-0.732;2023-04-01T02:45:36;9;8;
46240;PMS5003;31961;52.416;-0.732;2023-04-01T02:48:04;8;8;
46240;PMS5003;31961;52.416;-0.732;2023-04-01T02:50:31;10;9;
46240;PMS5003;31961;52.416;-0.732;2023-04-01T02:52:59;11;9;
46240;PMS5003;31961;52.416;-0.732;2023-04-01T02:55:27;13;12;
46240;PMS5003;31961;52.416;-0.732;2023-04-01T02:57:54;13;9;
46240;PMS5003;31961;52.416;-0.732;2023-04-01T03:00:22;11;10;
46240;PMS5003;31961;52.416;-0.732;2023-04-01T03:02:49;10;10;
46240;PMS5003;31961;52.416;-0.732;2023-04-01T03:05:16;10;9;
46240;PMS5003;31961;52.416;-0.732;2023-04-01T03:07:43;9;9;
46240;PMS5003;31961;52.416;-0.732;2023-04-01T03:10:12;14;8;
46240;PMS5003;31961;52.416;-0.732;2023-04-01T03:12:39;8;8;
46240;PMS5003;31961;52.416;-0.732;2023-04-01T03:15:08;10;10;
46240;PMS5003;31961;52.416;-0.732;2023-04-01T03:17:37;13;11;
46240;PMS5003;31961;52.416;-0.732;2023-04-01T03:20:05;16;10;
46240;PMS5003;31961;52.416;-0.732;2023-04-01T03:22:34;9;9;
46240;PMS5003;31961;52.416;-0.732;2023-04-01T03:25:02;8;8;
46240;PMS5003;31961;52.416;-0.732;2023-04-01T03:27:30;11;8;
46240;PMS5003;31961;52.416;-0.732;2023-04-01T03:29:57;8;7;
46240;PMS5003;31961;52.416;-0.732;2023-04-01T03:32:25;7;6;
46240;PMS5003;31961;52.416;-0.732;2023-04-01T03:34:52;7;7;
46240;PMS5003;31961;52.416;-0.732;2023-04-01T03:37:20;10;10;
46240;PMS5003;31961;52.416;-0.732;2023-04-01T03:39:47;10;10;
46240;PMS5003;31961;52.416;-0.732;2023-04-01T03:42:15;10;7;
46240;PMS5003;31961;52.416;-0.732;2023-04-01T03:44:42;12;9;
46240;PMS5003;31961;52.416;-0.732;2023-04-01T03:47:09;10;7;
46240;PMS5003;31961;52.416;-0.732;2023-04-01T03:49:37;9;7;
46240;PMS5003;31961;52.416;-0.732;2023-04-01T03:52:04;10;10;
46240;PMS5003;31961;52.416;-0.732;2023-04-01T03:54:34;9;9;
46240;PMS5003;31961;52.416;-0.732;2023-04-01T03:57:01;10;9;
46240;PMS5003;31961;52.416;-0.732;2023-04-01T03:59:28;11;9;
46240;PMS5003;31961;52.416;-0.732;2023-04-01T04:01:56;6;6;
46240;PMS5003;31961;52.416;-0.732;2023-04-01T04:04:23;8;7;
46240;PMS5003;31961;52.416;-0.732;2023-04-01T04:06:51;5;5;
46240;PMS5003;31961;52.416;-0.732;2023-04-01T04:09:18;6;6;
46240;PMS5003;31961;52.416;-0.732;2023-04-01T04:11:46;6;6;
46240;PMS5003;31961;52.416;-0.732;2023-04-01T04:14:13;9;8;
46240;PMS5003;31961;52.416;-0.732;2023-04-01T04:16:41;10;4;
46240;PMS5003;31961;52.416;-0.732;2023-04-01T04:19:08;10;6;
46240;PMS5003;31961;52.416;-0.732;2023-04-01T04:21:36;6;6;
46240;PMS5003;31961;52.416;-0.732;2023-04-01T04:24:03;8;6;
46240;PMS5003;31961;52.416;-0.732;2023-04-01T04:26:30;8;7;
46240;PMS5003;31961;52.416;-0.732;2023-04-01T04:28:58;3;3;
46240;PMS5003;31961;52.416;-0.732;2023-04-01T04:31:25;7;7;
46240;PMS5003;31961;52.416;-0.732;2023-04-01T04:33:53;8;6;
46240;PMS5003;31961;52.416;-0.732;2023-04-01T04:36:21;7;4;
46240;PMS5003;31961;52.416;-0.732;2023-04-01T04:38:48;5;5;
46240;PMS5003;31961;52.416;-0.732;2023-04-01T04:41:17;6;5;
46240;PMS5003;31961;52.416;-0.732;2023-04-01T04:43:48;6;6;
46240;PMS5003;31961;52.416;-0.732;2023-04-01T04:46:16;5;5;
46240;PMS5003;31961;52.416;-0.732;2023-04-01T04:48:44;8;8;
46240;PMS5003;31961;52.416;-0.732;2023-04-01T04:51:12;14;12;
46240;PMS5003;31961;52.416;-0.732;2023-04-01T04:53:41;12;9;
46240;PMS5003;31961;52.416;-0.732;2023-04-01T04:56:09;12;12;
46240;PMS5003;31961;52.416;-0.732;2023-04-01T04:58:37;9;8;
46240;PMS5003;31961;52.416;-0.732;2023-04-01T05:01:06;12;9;
46240;PMS5003;31961;52.416;-0.732;2023-04-01T05:03:34;7;7;
46240;PMS5003;31961;52.416;-0.732;2023-04-01T05:06:02;7;7;
46240;PMS5003;31961;52.416;-0.732;2023-04-01T05:08:29;8;8;
46240;PMS5003;31961;52.416;-0.732;2023-04-01T05:10:57;11;11;
46240;PMS5003;31961;52.416;-0.732;2023-04-01T05:13:24;6;6;
46240;PMS5003;31961;52.416;-0.732;2023-04-01T05:15:52;11;8;
46240;PMS5003;31961;52.416;-0.732;2023-04-01T05:18:19;9;9;
46240;PMS5003;31961;52.416;-0.732;2023-04-01T05:20:47;8;7;
46240;PMS5003;31961;52.416;-0.732;2023-04-01T05:23:16;10;10;
46240;PMS5003;31961;52.416;-0.732;2023-04-01T05:25:43;9;8;
46240;PMS5003;31961;52.416;-0.732;2023-04-01T05:28:11;10;8;
46240;PMS5003;31961;52.416;-0.732;2023-04-01T05:30:39;11;8;
46240;PMS5003;31961;52.416;-0.732;2023-04-01T05:33:06;5;5;
46240;PMS5003;31961;52.416;-0.732;2023-04-01T05:35:34;9;8;
46240;PMS5003;31961;52.416;-0.732;2023-04-01T05:38:01;7;6;
46240;PMS5003;31961;52.416;-0.732;2023-04-01T05:40:28;7;7;
46240;PMS5003;31961;52.416;-0.732;2023-04-01T05:42:56;7;7;
46240;PMS5003;31961;52.416;-0.732;2023-04-01T05:45:24;6;6;
46240;PMS5003;31961;52.416;-0.732;2023-04-01T05:47:52;10;8;
46240;PMS5003;31961;52.416;-0.732;2023-04-01T05:50:19;10;10;
46240;PMS5003;31961;52.416;-0.732;2023-04-01T05:52:47;10;10;
46240;PMS5003;31961;52.416;-0.732;2023-04-01T05:55:14;10;8;
46240;PMS5003;31961;52.416;-0.732;2023-04-01T05:57:43;16;13;
46240;PMS5003;31961;52.416;-0.732;2023-04-01T06:00:12;11;11;
46240;PMS5003;31961;52.416;-0.732;2023-04-01T06:02:39;13;10;
46240;PMS5003;31961;52.416;-0.732;2023-04-01T06:05:12;11;9;
46240;PMS5003;31961;52.416;-0.732;2023-04-01T06:07:43;12;8;
46240;PMS5003;31961;52.416;-0.732;2023-04-01T06:10:13;15;10;
46240;PMS5003;31961;52.416;-0.732;2023-04-01T06:12:45;10;9;
46240;PMS5003;31961;52.416;-0.732;2023-04-01T06:15:21;16;11;
46240;PMS5003;31961;52.416;-0.732;2023-04-01T06:17:59;12;11;
46240;PMS5003;31961;52.416;-0.732;2023-04-01T06:20:39;10;10;
46240;PMS5003;31961;52.416;-0.732;2023-04-01T06:23:17;10;10;
46240;PMS5003;31961;52.416;-0.732;2023-04-01T06:26:02;14;12;
46240;PMS5003;31961;52.416;-0.732;2023-04-01T06:28:42;12;11;
46240;PMS5003;31961;52.416;-0.732;2023-04-01T06:31:24;16;13;
46240;PMS5003;31961;52.416;-0.732;2023-04-01T06:34:06;15;15;
46240;PMS5003;31961;52.416;-0.732;2023-04-01T06:36:52;16;15;
46240;PMS5003;31961;52.416;-0.732;2023-04-01T06:39:33;15;15;
46240;PMS5003;31961;52.416;-0.732;2023-04-01T06:42:15;19;17;
46240;PMS5003;31961;52.416;-0.732;2023-04-01T06:44:58;15;14;
46240;PMS5003;31961;52.416;-0.732;2023-04-01T06:47:43;17;15;
46240;PMS5003;31961;52.416;-0.732;2023-04-01T06:50:21;14;14;
46240;PMS5003;31961;52.416;-0.732;2023-04-01T06:52:55;15;14;
46240;PMS5003;31961;52.416;-0.732;2023-04-01T06:55:32;12;11;
46240;PMS5003;31961;52.416;-0.732;2023-04-01T06:58:03;19;14;
46240;PMS5003;31961;52.416;-0.732;2023-04-01T07:00:35;16;15;
46240;PMS5003;31961;52.416;-0.732;2023-04-01T07:03:07;16;13;
46240;PMS5003;31961;52.416;-0.732;2023-04-01T07:05:42;17;15;
46240;PMS5003;31961;52.416;-0.732;2023-04-01T07:08:10;18;14;
46240;PMS5003;31961;52.416;-0.732;2023-04-01T07:10:43;16;12;
46240;PMS5003;31961;52.416;-0.732;2023-04-01T07:13:16;16;16;
46240;PMS5003;31961;52.416;-0.732;2023-04-01T07:15:51;16;14;
46240;PMS5003;31961;52.416;-0.732;2023-04-01T07:18:28;15;13;
46240;PMS5003;31961;52.416;-0.732;2023-04-01T07:21:01;17;14;
46240;PMS5003;31961;52.416;-0.732;2023-04-01T07:23:31;13;11;
46240;PMS5003;31961;52.416;-0.732;2023-04-01T07:26:06;11;11;
46240;PMS5003;31961;52.416;-0.732;2023-04-01T07:28:41;14;13;
46240;PMS5003;31961;52.416;-0.732;2023-04-01T07:31:13;13;13;
46240;PMS5003;31961;52.416;-0.732;2023-04-01T07:33:51;18;15;
46240;PMS5003;31961;52.416;-0.732;2023-04-01T07:36:29;11;10;
46240;PMS5003;31961;52.416;-0.732;2023-04-01T07:39:15;15;11;
46240;PMS5003;31961;52.416;-0.732;2023-04-01T07:42:04;15;13;
46240;PMS5003;31961;52.416;-0.732;2023-04-01T07:44:44;15;14;
46240;PMS5003;31961;52.416;-0.732;2023-04-01T07:47:28;15;13;
46240;PMS5003;31961;52.416;-0.732;2023-04-01T07:50:20;11;11;
46240;PMS5003;31961;52.416;-0.732;2023-04-01T07:53:00;13;12;
46240;PMS5003;31961;52.416;-0.732;2023-04-01T07:55:54;13;12;
46240;PMS5003;31961;52.416;-0.732;2023-04-01T07:58:37;13;13;
46240;PMS5003;31961;52.416;-0.732;2023-04-01T08:01:30;13;11;
46240;PMS5003;31961;52.416;-0.732;2023-04-01T08:04:25;19;15;
46240;PMS5003;31961;52.416;-0.732;2023-04-01T08:07:17;12;10;
46240;PMS5003;31961;52.416;-0.732;2023-04-01T08:09:52;11;10;
46240;PMS5003;31961;52.416;-0.732;2023-04-01T08:12:35;11;11;
46240;PMS5003;31961;52.416;-0.732;2023-04-01T08:15:36;11;10;
46240;PMS5003;31961;52.416;-0.732;2023-04-01T08:18:22;12;9;
46240;PMS5003;31961;52.416;-0.732;2023-04-01T08:21:11;14;13;
46240;PMS5003;31961;52.416;-0.732;2023-04-01T08:23:51;13;11;
46240;PMS5003;31961;52.416;-0.732;2023-04-01T08:26:32;10;10;
46240;PMS5003;31961;52.416;-0.732;2023-04-01T08:29:18;9;9;
46240;PMS5003;31961;52.416;-0.732;2023-04-01T08:32:05;10;10;
46240;PMS5003;31961;52.416;-0.732;2023-04-01T08:34:43;10;10;
46240;PMS5003;31961;52.416;-0.732;2023-04-01T08:37:30;15;12;
46240;PMS5003;31961;52.416;-0.732;2023-04-01T08:40:29;12;11;
46240;PMS5003;31961;52.416;-0.732;2023-04-01T08:43:23;10;8;
46240;PMS5003;31961;52.416;-0.732;2023-04-01T08:46:23;12;9;
46240;PMS5003;31961;52.416;-0.732;2023-04-01T08:50:43;7;7;
46240;PMS5003;31961;52.416;-0.732;2023-04-01T08:54:16;11;8;
46240;PMS5003;31961;52.416;-0.732;2023-04-01T08:57:09;8;7;
46240;PMS5003;31961;52.416;-0.732;2023-04-01T08:59:52;8;7;
46240;PMS5003;31961;52.416;-0.732;2023-04-01T09:02:43;9;9;
46240;PMS5003;31961;52.416;-0.732;2023-04-01T09:05:45;9;9;
46240;PMS5003;31961;52.416;-0.732;2023-04-01T09:08:11;10;10;
46240;PMS5003;31961;52.416;-0.732;2023-04-01T09:11:00;10;9;
46240;PMS5003;31961;52.416;-0.732;2023-04-01T09:13:55;15;14;
46240;PMS5003;31961;52.416;-0.732;2023-04-01T09:16:44;15;13;
46240;PMS5003;31961;52.416;-0.732;2023-04-01T09:19:47;14;14;
46240;PMS5003;31961;52.416;-0.732;2023-04-01T09:23:00;12;11;
46240;PMS5003;31961;52.416;-0.732;2023-04-01T09:26:02;12;11;
46240;PMS5003;31961;52.416;-0.732;2023-04-01T09:29:05;9;6;
46240;PMS5003;31961;52.416;-0.732;2023-04-01T09:32:04;8;8;
46240;PMS5003;31961;52.416;-0.732;2023-04-01T09:34:58;10;7;
46240;PMS5003;31961;52.416;-0.732;2023-04-01T09:38:03;10;7;
46240;PMS5003;31961;52.416;-0.732;2023-04-01T09:40:56;7;6;
46240;PMS5003;31961;52.416;-0.732;2023-04-01T09:43:46;7;7;
46240;PMS5003;31961;52.416;-0.732;2023-04-01T09:46:31;7;7;
46240;PMS5003;31961;52.416;-0.732;2023-04-01T09:49:18;7;5;
46240;PMS5003;31961;52.416;-0.732;2023-04-01T09:52:12;5;5;
46240;PMS5003;31961;52.416;-0.732;2023-04-01T09:55:03;4;4;
46240;PMS5003;31961;52.416;-0.732;2023-04-01T09:57:55;6;5;
46240;PMS5003;31961;52.416;-0.732;2023-04-01T10:01:29;6;4;
46240;PMS5003;31961;52.416;-0.732;2023-04-01T10:06:55;6;4;
46240;PMS5003;31961;52.416;-0.732;2023-04-01T10:11:08;6;6;
46240;PMS5003;31961;52.416;-0.732;2023-04-01T10:16:26;7;6;
46240;PMS5003;31961;52.416;-0.732;2023-04-01T10:19:23;6;5;
46240;PMS5003;31961;52.416;-0.732;2023-04-01T10:22:46;5;5;
46240;PMS5003;31961;52.416;-0.732;2023-04-01T10:26:22;7;6;
46240;PMS5003;31961;52.416;-0.732;2023-04-01T10:29:52;4;4;
46240;PMS5003;31961;52.416;-0.732;2023-04-01T10:33:09;4;4;
46240;PMS5003;31961;52.416;-0.732;2023-04-01T10:36:22;5;5;
46240;PMS5003;31961;52.416;-0.732;2023-04-01T10:40:06;7;5;
46240;PMS5003;31961;52.416;-0.732;2023-04-01T10:43:18;4;4;
46240;PMS5003;31961;52.416;-0.732;2023-04-01T10:46:38;7;6;
46240;PMS5003;31961;52.416;-0.732;2023-04-01T10:50:08;6;6;
46240;PMS5003;31961;52.416;-0.732;2023-04-01T10:51:10;6;6;
46240;PMS5003;31961;52.416;-0.732;2023-04-01T10:53:51;7;7;
46240;PMS5003;31961;52.416;-0.732;2023-04-01T10:56:50;5;5;
46240;PMS5003;31961;52.416;-0.732;2023-04-01T11:00:39;8;6;
46240;PMS5003;31961;52.416;-0.732;2023-04-01T11:04:46;5;5;
46240;PMS5003;31961;52.416;-0.732;2023-04-01T11:07:51;7;6;
46240;PMS5003;31961;52.416;-0.732;2023-04-01T11:11:18;7;7;
46240;PMS5003;31961;52.416;-0.732;2023-04-01T11:14:32;5;5;
46240;PMS5003;31961;52.416;-0.732;2023-04-01T11:17:26;9;8;
46240;PMS5003;31961;52.416;-0.732;2023-04-01T11:20:15;7;7;
46240;PMS5003;31961;52.416;-0.732;2023-04-01T11:23:17;7;6;
46240;PMS5003;31961;52.416;-0.732;2023-04-01T11:25:57;8;8;
46240;PMS5003;31961;52.416;-0.732;2023-04-01T11:30:11;9;7;
46240;PMS5003;31961;52.416;-0.732;2023-04-01T11:33:07;8;8;
46240;PMS5003;31961;52.416;-0.732;2023-04-01T11:35:57;6;6;
46240;PMS5003;31961;52.416;-0.732;2023-04-01T11:38:51;10;9;
46240;PMS5003;31961;52.416;-0.732;2023-04-01T11:41:34;10;10;
46240;PMS5003;31961;52.416;-0.732;2023-04-01T11:44:11;8;8;
46240;PMS5003;31961;52.416;-0.732;2023-04-01T11:46:48;8;8;
46240;PMS5003;31961;52.416;-0.732;2023-04-01T11:49:12;7;7;
46240;PMS5003;31961;52.416;-0.732;2023-04-01T11:51:59;9;6;
46240;PMS5003;31961;52.416;-0.732;2023-04-01T11:54:51;6;5;
46240;PMS5003;31961;52.416;-0.732;2023-04-01T11:57:43;7;6;
46240;PMS5003;31961;52.416;-0.732;2023-04-01T12:00:24;7;7;
46240;PMS5003;31961;52.416;-0.732;2023-04-01T12:03:18;6;5;
46240;PMS5003;31961;52.416;-0.732;2023-04-01T12:06:08;9;7;
46240;PMS5003;31961;52.416;-0.732;2023-04-01T12:08:51;9;9;
46240;PMS5003;31961;52.416;-0.732;2023-04-01T12:11:29;8;7;
46240;PMS5003;31961;52.416;-0.732;2023-04-01T12:14:09;9;9;
46240;PMS5003;31961;52.416;-0.732;2023-04-01T12:16:46;10;9;
46240;PMS5003;31961;52.416;-0.732;2023-04-01T12:19:28;7;7;
46240;PMS5003;31961;52.416;-0.732;2023-04-01T12:22:07;8;7;
46240;PMS5003;31961;52.416;-0.732;2023-04-01T12:24:57;9;7;
46240;PMS5003;31961;52.416;-0.732;2023-04-01T12:27:45;8;8;
46240;PMS5003;31961;52.416;-0.732;2023-04-01T12:31:01;9;8;
46240;PMS5003;31961;52.416;-0.732;2023-04-01T12:33:47;7;7;
46240;PMS5003;31961;52.416;-0.732;2023-04-01T12:36:33;12;11;
46240;PMS5003;31961;52.416;-0.732;2023-04-01T12:39:20;8;8;
46240;PMS5003;31961;52.416;-0.732;2023-04-01T12:42:01;8;8;
46240;PMS5003;31961;52.416;-0.732;2023-04-01T12:44:44;8;8;
46240;PMS5003;31961;52.416;-0.732;2023-04-01T12:47:29;10;6;
46240;PMS5003;31961;52.416;-0.732;2023-04-01T12:50:27;9;9;
46240;PMS5003;31961;52.416;-0.732;2023-04-01T12:53:22;11;9;
46240;PMS5003;31961;52.416;-0.732;2023-04-01T12:56:06;9;9;
46240;PMS5003;31961;52.416;-0.732;2023-04-01T12:59:06;14;10;
46240;PMS5003;31961;52.416;-0.732;2023-04-01T13:02:01;6;6;
46240;PMS5003;31961;52.416;-0.732;2023-04-01T13:04:54;11;9;
46240;PMS5003;31961;52.416;-0.732;2023-04-01T13:07:54;11;9;
46240;PMS5003;31961;52.416;-0.732;2023-04-01T13:10:44;8;8;
46240;PMS5003;31961;52.416;-0.732;2023-04-01T13:13:41;7;7;
46240;PMS5003;31961;52.416;-0.732;2023-04-01T13:16:29;7;7;
46240;PMS5003;31961;52.416;-0.732;2023-04-01T13:19:16;6;6;
46240;PMS5003;31961;52.416;-0.732;2023-04-01T13:22:08;7;7;
46240;PMS5003;31961;52.416;-0.732;2023-04-01T13:24:55;9;6;
46240;PMS5003;31961;52.416;-0.732;2023-04-01T13:27:37;6;6;
46240;PMS5003;31961;52.416;-0.732;2023-04-01T13:30:25;9;8;
46240;PMS5003;31961;52.416;-0.732;2023-04-01T13:33:12;8;7;
46240;PMS5003;31961;52.416;-0.732;2023-04-01T13:36:06;8;7;
46240;PMS5003;31961;52.416;-0.732;2023-04-01T13:39:26;7;7;
46240;PMS5003;31961;52.416;-0.732;2023-04-01T13:42:26;6;6;
46240;PMS5003;31961;52.416;-0.732;2023-04-01T13:45:11;7;6;
46240;PMS5003;31961;52.416;-0.732;2023-04-01T13:56:23;6;5;
46240;PMS5003;31961;52.416;-0.732;2023-04-01T13:59:03;5;5;
46240;PMS5003;31961;52.416;-0.732;2023-04-01T14:01:46;8;7;
46240;PMS5003;31961;52.416;-0.732;2023-04-01T14:05:01;6;6;
46240;PMS5003;31961;52.416;-0.732;2023-04-01T14:07:47;7;6;
46240;PMS5003;31961;52.416;-0.732;2023-04-01T14:10:27;6;5;
46240;PMS5003;31961;52.416;-0.732;2023-04-01T14:13:05;6;4;
46240;PMS5003;31961;52.416;-0.732;2023-04-01T14:15:47;5;5;
46240;PMS5003;31961;52.416;-0.732;2023-04-01T14:19:32;6;6;
46240;PMS5003;31961;52.416;-0.732;2023-04-01T14:22:18;8;6;
46240;PMS5003;31961;52.416;-0.732;2023-04-01T14:25:01;7;6;
46240;PMS5003;31961;52.416;-0.732;2023-04-01T14:28:24;7;6;
46240;PMS5003;31961;52.416;-0.732;2023-04-01T14:31:08;4;4;
46240;PMS5003;31961;52.416;-0.732;2023-04-01T14:33:53;7;7;
46240;PMS5003;31961;52.416;-0.732;2023-04-01T14:36:35;6;4;
46240;PMS5003;31961;52.416;-0.732;2023-04-01T14:39:15;5;5;
46240;PMS5003;31961;52.416;-0.732;2023-04-01T14:41:59;5;4;
46240;PMS5003;31961;52.416;-0.732;2023-04-01T14:44:50;6;6;
46240;PMS5003;31961;52.416;-0.732;2023-04-01T14:47:34;8;7;
46240;PMS5003;31961;52.416;-0.732;2023-04-01T14:50:12;7;6;
46240;PMS5003;31961;52.416;-0.732;2023-04-01T14:52:43;7;6;
46240;PMS5003;31961;52.416;-0.732;2023-04-01T14:55:20;5;5;
46240;PMS5003;31961;52.416;-0.732;2023-04-01T14:58:07;8;8;
46240;PMS5003;31961;52.416;-0.732;2023-04-01T15:00:41;7;7;
46240;PMS5003;31961;52.416;-0.732;2023-04-01T15:03:17;7;6;
46240;PMS5003;31961;52.416;-0.732;2023-04-01T15:05:52;6;6;
46240;PMS5003;31961;52.416;-0.732;2023-04-01T15:08:27;8;7;
46240;PMS5003;31961;52.416;-0.732;2023-04-01T15:10:59;7;6;
46240;PMS5003;31961;52.416;-0.732;2023-04-01T15:13:54;5;5;
46240;PMS5003;31961;52.416;-0.732;2023-04-01T15:16:37;5;5;
46240;PMS5003;31961;52.416;-0.732;2023-04-01T15:19:15;7;7;
46240;PMS5003;31961;52.416;-0.732;2023-04-01T15:21:55;6;6;
46240;PMS5003;31961;52.416;-0.732;2023-04-01T15:24:36;7;7;
46240;PMS5003;31961;52.416;-0.732;2023-04-01T15:27:15;4;4;
46240;PMS5003;31961;52.416;-0.732;2023-04-01T15:29:56;5;4;
46240;PMS5003;31961;52.416;-0.732;2023-04-01T15:32:37;6;6;
46240;PMS5003;31961;52.416;-0.732;2023-04-01T15:35:14;8;5;
46240;PMS5003;31961;52.416;-0.732;2023-04-01T15:37:53;5;5;
46240;PMS5003;31961;52.416;-0.732;2023-04-01T15:40:26;4;4;
46240;PMS5003;31961;52.416;-0.732;2023-04-01T15:43:02;5;5;
46240;PMS5003;31961;52.416;-0.732;2023-04-01T15:45:43;3;3;
46240;PMS5003;31961;52.416;-0.732;2023-04-01T15:48:20;5;5;
46240;PMS5003;31961;52.416;-0.732;2023-04-01T15:51:01;4;4;
46240;PMS5003;31961;52.416;-0.732;2023-04-01T15:53:44;4;3;
46240;PMS5003;31961;52.416;-0.732;2023-04-01T15:57:29;4;4;
46240;PMS5003;31961;52.416;-0.732;2023-04-01T16:00:10;5;5;
46240;PMS5003;31961;52.416;-0.732;2023-04-01T16:02:47;5;4;
46240;PMS5003;31961;52.416;-0.732;2023-04-01T16:05:24;4;4;
46240;PMS5003;31961;52.416;-0.732;2023-04-01T16:08:01;7;6;
46240;PMS5003;31961;52.416;-0.732;2023-04-01T16:11:46;5;5;
46240;PMS5003;31961;52.416;-0.732;2023-04-01T16:14:23;4;4;
46240;PMS5003;31961;52.416;-0.732;2023-04-01T16:17:05;5;4;
46240;PMS5003;31961;52.416;-0.732;2023-04-01T16:19:50;5;5;
46240;PMS5003;31961;52.416;-0.732;2023-04-01T16:22:20;6;5;
46240;PMS5003;31961;52.416;-0.732;2023-04-01T16:24:54;5;5;
46240;PMS5003;31961;52.416;-0.732;2023-04-01T16:27:28;8;5;
46240;PMS5003;31961;52.416;-0.732;2023-04-01T16:30:16;5;5;
46240;PMS5003;31961;52.416;-0.732;2023-04-01T16:33:00;5;5;
46240;PMS5003;31961;52.416;-0.732;2023-04-01T16:35:35;6;6;
46240;PMS5003;31961;52.416;-0.732;2023-04-01T16:38:11;6;6;
46240;PMS5003;31961;52.416;-0.732;2023-04-01T16:40:47;6;6;
46240;PMS5003;31961;52.416;-0.732;2023-04-01T16:43:25;5;5;
46240;PMS5003;31961;52.416;-0.732;2023-04-01T16:46:08;4;4;
46240;PMS5003;31961;52.416;-0.732;2023-04-01T16:48:50;5;5;
46240;PMS5003;31961;52.416;-0.732;2023-04-01T16:51:25;4;4;
46240;PMS5003;31961;52.416;-0.732;2023-04-01T16:54:02;9;7;
46240;PMS5003;31961;52.416;-0.732;2023-04-01T16:56:38;5;5;
46240;PMS5003;31961;52.416;-0.732;2023-04-01T16:59:14;5;5;
46240;PMS5003;31961;52.416;-0.732;2023-04-01T17:01:49;6;6;
46240;PMS5003;31961;52.416;-0.732;2023-04-01T17:04:23;5;5;
46240;PMS5003;31961;52.416;-0.732;2023-04-01T17:07:00;9;8;
46240;PMS5003;31961;52.416;-0.732;2023-04-01T17:09:46;6;5;
46240;PMS5003;31961;52.416;-0.732;2023-04-01T17:12:29;7;7;
46240;PMS5003;31961;52.416;-0.732;2023-04-01T17:15:05;6;5;
46240;PMS5003;31961;52.416;-0.732;2023-04-01T17:17:46;6;6;
46240;PMS5003;31961;52.416;-0.732;2023-04-01T17:20:24;8;6;
46240;PMS5003;31961;52.416;-0.732;2023-04-01T17:23:00;5;5;
46240;PMS5003;31961;52.416;-0.732;2023-04-01T17:25:38;7;5;
46240;PMS5003;31961;52.416;-0.732;2023-04-01T17:28:24;8;6;
46240;PMS5003;31961;52.416;-0.732;2023-04-01T17:31:01;9;8;
46240;PMS5003;31961;52.416;-0.732;2023-04-01T17:35:48;5;5;
46240;PMS5003;31961;52.416;-0.732;2023-04-01T17:38:34;4;4;
46240;PMS5003;31961;52.416;-0.732;2023-04-01T17:41:16;5;5;
46240;PMS5003;31961;52.416;-0.732;2023-04-01T17:43:55;6;6;
46240;PMS5003;31961;52.416;-0.732;2023-04-01T17:46:31;6;6;
46240;PMS5003;31961;52.416;-0.732;2023-04-01T17:49:13;7;7;
46240;PMS5003;31961;52.416;-0.732;2023-04-01T17:51:53;7;6;
46240;PMS5003;31961;52.416;-0.732;2023-04-01T17:54:28;6;6;
46240;PMS5003;31961;52.416;-0.732;2023-04-01T17:57:08;5;5;
46240;PMS5003;31961;52.416;-0.732;2023-04-01T17:59:52;8;8;
46240;PMS5003;31961;52.416;-0.732;2023-04-01T18:02:28;7;6;
46240;PMS5003;31961;52.416;-0.732;2023-04-01T18:05:11;9;6;
46240;PMS5003;31961;52.416;-0.732;2023-04-01T18:07:54;6;6;
46240;PMS5003;31961;52.416;-0.732;2023-04-01T18:10:34;6;6;
46240;PMS5003;31961;52.416;-0.732;2023-04-01T18:13:20;9;9;
46240;PMS5003;31961;52.416;-0.732;2023-04-01T18:15:37;9;9;